Time;durP1;ratioP1;P1;durP2;ratioP2;P2;SDS_P1;SDS_P2;PMS_P1;PMS_P2;Temp;Humidity;BMP_temperature;BMP_pressure;BME280_temperature;BME280_humidity;BME280_pressure;Samples;Min_cycle;Max_cycle;Signal;HPM_P1;HPM_P2
2021/06/17 00:01:42;;;;;;;13.52;6.35;;;25.60;64.30;;;;;;6295787;28;20067;-76
2021/06/17 00:04:43;;;;;;;7.93;5.68;;;25.60;64.00;;;;;;6244651;28;20048;-76
2021/06/17 00:07:46;;;;;;;8.88;5.88;;;25.60;63.90;;;;;;6246497;28;20473;-76
2021/06/17 00:10:49;;;;;;;14.18;6.45;;;25.60;63.80;;;;;;6249902;28;20033;-77
2021/06/17 00:13:51;;;;;;;10.27;6.13;;;25.50;63.90;;;;;;6262897;28;20033;-76
2021/06/17 00:16:52;;;;;;;11.13;6.93;;;25.50;65.00;;;;;;6295768;28;20028;-76
2021/06/17 00:19:53;;;;;;;10.07;7.05;;;25.40;64.30;;;;;;6296400;28;20028;-76
2021/06/17 00:22:54;;;;;;;10.43;6.47;;;25.40;64.60;;;;;;6262116;28;20029;-75
2021/06/17 00:25:56;;;;;;;12.82;6.75;;;25.40;64.60;;;;;;6278904;28;20024;-76
2021/06/17 00:28:57;;;;;;;10.70;6.70;;;25.40;64.60;;;;;;6295024;28;20044;-76
2021/06/17 00:31:58;;;;;;;8.95;6.50;;;25.40;64.60;;;;;;6275121;28;20457;-77
2021/06/17 00:34:59;;;;;;;11.98;6.75;;;25.40;64.40;;;;;;6247439;28;20026;-76
2021/06/17 00:38:01;;;;;;;9.68;6.53;;;25.50;64.00;;;;;;6247532;28;20037;-75
2021/06/17 00:41:02;;;;;;;8.80;6.70;;;25.60;64.00;;;;;;6246737;28;20088;-76
2021/06/17 00:44:03;;;;;;;11.60;7.55;;;25.60;64.70;;;;;;6245958;28;20040;-75
2021/06/17 00:47:04;;;;;;;10.02;7.05;;;25.60;63.60;;;;;;6245862;28;20030;-75
2021/06/17 00:50:08;;;;;;;16.98;6.07;;;25.60;63.40;;;;;;6246193;28;20390;-75
2021/06/17 00:53:11;;;;;;;11.63;6.50;;;25.60;63.30;;;;;;6267572;28;20465;-75
2021/06/17 00:56:12;;;;;;;20.95;7.43;;;25.60;63.10;;;;;;6262096;28;20020;-76
2021/06/17 00:59:12;;;;;;;12.32;7.13;;;25.60;63.10;;;;;;6278353;28;20036;-76
2021/06/17 01:02:14;;;;;;;10.52;6.85;;;25.60;63.20;;;;;;6261099;28;20025;-76
2021/06/17 01:05:19;;;;;;;12.80;7.32;;;25.60;63.20;;;;;;6258721;28;20335;-75
2021/06/17 01:08:46;;;;;;;16.42;7.07;;;25.40;63.30;;;;;;6274654;28;20048;-75
2021/06/17 01:12:15;;;;;;;10.35;6.47;;;25.40;63.50;;;;;;6232029;28;20033;-75
2021/06/17 01:15:18;;;;;;;;;;;25.40;63.80;;;;;;6247672;28;20036;-75
2021/06/17 01:18:20;;;;;;;12.70;6.80;;;25.40;63.80;;;;;;6230614;28;19985;-75
2021/06/17 01:21:32;;;;;;;9.38;6.90;;;25.40;63.70;;;;;;6260599;28;20450;-75
2021/06/17 01:24:45;;;;;;;13.15;7.13;;;25.30;63.70;;;;;;6256026;28;20112;-75
2021/06/17 01:28:11;;;;;;;13.40;7.22;;;25.30;64.10;;;;;;6253573;28;20041;-77
2021/06/17 01:31:17;;;;;;;12.75;7.53;;;25.20;64.30;;;;;;6247399;28;20470;-75
2021/06/17 01:34:19;;;;;;;11.48;7.18;;;25.10;64.30;;;;;;6230171;28;20029;-76
2021/06/17 01:37:25;;;;;;;11.50;7.10;;;25.10;64.60;;;;;;6193497;28;20026;-76
2021/06/17 01:40:29;;;;;;;13.05;7.30;;;25.00;64.70;;;;;;6214476;28;20144;-76
2021/06/17 01:43:31;;;;;;;8.98;6.75;;;24.90;64.90;;;;;;6229941;28;20438;-76
2021/06/17 01:46:33;;;;;;;11.40;7.03;;;24.80;65.20;;;;;;6214653;28;20030;-76
2021/06/17 01:49:38;;;;;;;12.57;6.93;;;24.70;65.40;;;;;;6233228;28;20033;-76
2021/06/17 01:52:42;;;;;;;13.32;7.63;;;24.60;65.80;;;;;;6229262;28;20037;-77
2021/06/17 01:55:45;;;;;;;16.08;7.40;;;24.60;66.10;;;;;;6247160;28;20544;-76
2021/06/17 01:58:55;;;;;;;11.43;7.63;;;24.50;66.20;;;;;;6246741;28;20029;-76
2021/06/17 02:01:58;;;;;;;13.20;6.88;;;24.40;66.40;;;;;;6243609;28;20118;-76
2021/06/17 02:05:03;;;;;;;9.73;7.13;;;24.40;66.40;;;;;;6247322;28;20033;-76
2021/06/17 02:08:07;;;;;;;13.35;6.70;;;24.50;66.50;;;;;;6229010;28;20366;-76
2021/06/17 02:11:08;;;;;;;10.50;7.25;;;24.50;66.40;;;;;;6225266;28;20073;-76
2021/06/17 02:14:12;;;;;;;12.82;6.57;;;24.50;66.40;;;;;;6230838;28;20477;-75
2021/06/17 02:17:15;;;;;;;9.65;6.93;;;24.50;66.40;;;;;;6230003;28;20052;-75
2021/06/17 02:20:17;;;;;;;19.67;7.93;;;24.50;66.30;;;;;;6247469;28;20044;-75
2021/06/17 02:23:21;;;;;;;14.93;7.05;;;24.60;66.20;;;;;;6214856;28;20041;-75
2021/06/17 02:26:24;;;;;;;17.80;7.05;;;24.70;66.00;;;;;;6232154;28;20029;-75
2021/06/17 02:29:26;;;;;;;14.73;7.22;;;24.80;65.90;;;;;;6246251;28;20055;-76
2021/06/17 02:32:30;;;;;;;17.77;7.07;;;24.80;66.40;;;;;;6256332;28;20052;-76
2021/06/17 02:35:31;;;;;;;14.48;7.68;;;24.80;65.50;;;;;;6256731;28;20025;-76
2021/06/17 02:38:37;;;;;;;11.27;6.38;;;24.80;65.40;;;;;;6257973;28;20034;-76
2021/06/17 02:41:47;;;;;;;9.15;6.65;;;24.80;65.20;;;;;;6256300;28;20025;-77
2021/06/17 02:44:50;;;;;;;11.70;7.13;;;24.80;65.20;;;;;;6256409;28;20119;-76
2021/06/17 02:47:52;;;;;;;11.35;6.32;;;24.80;65.10;;;;;;6256278;28;20032;-76
2021/06/17 02:50:53;;;;;;;10.27;6.53;;;24.80;64.70;;;;;;6256326;28;20072;-75
2021/06/17 02:53:54;;;;;;;10.05;6.43;;;24.80;64.70;;;;;;6256184;28;20414;-76
2021/06/17 02:56:58;;;;;;;11.07;7.15;;;24.90;64.60;;;;;;6255837;28;20350;-76
2021/06/17 03:00:07;;;;;;;10.00;6.18;;;24.90;64.60;;;;;;6255755;28;20480;-76
2021/06/17 03:03:17;;;;;;;15.68;6.63;;;25.00;64.40;;;;;;6269709;28;20048;-75
2021/06/17 03:06:28;;;;;;;10.77;6.95;;;24.90;64.20;;;;;;6223911;28;20087;-75
2021/06/17 03:09:40;;;;;;;10.60;6.93;;;25.00;64.30;;;;;;6251559;28;20036;-75
2021/06/17 03:12:47;;;;;;;8.60;6.65;;;25.00;64.30;;;;;;6272454;28;20105;-77
2021/06/17 03:15:50;;;;;;;11.63;6.95;;;25.00;64.40;;;;;;6292531;28;20044;-76
2021/06/17 03:18:53;;;;;;;10.75;6.80;;;25.10;64.60;;;;;;6317873;28;20024;-75
2021/06/17 03:22:02;;;;;;;13.55;7.68;;;25.10;64.80;;;;;;6283048;28;20029;-75
2021/06/17 03:25:07;;;;;;;11.95;7.07;;;25.10;64.90;;;;;;6280868;28;20111;-76
2021/06/17 03:28:13;;;;;;;10.18;6.85;;;25.20;65.00;;;;;;6280301;28;20068;-77
2021/06/17 03:31:16;;;;;;;11.77;7.05;;;25.20;65.00;;;;;;6280232;28;20063;-77
2021/06/17 03:34:18;;;;;;;12.00;7.50;;;25.20;64.90;;;;;;6258225;28;20045;-75
2021/06/17 03:37:21;;;;;;;11.25;7.30;;;25.20;64.70;;;;;;6249637;28;20026;-76
2021/06/17 03:40:23;;;;;;;10.73;7.10;;;25.20;64.50;;;;;;6230080;28;20033;-75
2021/06/17 03:43:25;;;;;;;11.32;6.97;;;25.30;64.60;;;;;;6272388;28;20029;-76
2021/06/17 03:46:28;;;;;;;9.63;7.00;;;25.30;64.50;;;;;;6272478;28;20029;-75
2021/06/17 03:49:32;;;;;;;9.52;6.80;;;25.30;64.40;;;;;;6273118;28;20044;-77
2021/06/17 03:52:34;;;;;;;11.80;7.05;;;25.30;64.30;;;;;;6256952;28;20056;-76
2021/06/17 03:55:39;;;;;;;9.65;7.05;;;25.40;64.30;;;;;;6270701;28;20029;-76
2021/06/17 03:58:44;;;;;;;10.75;7.25;;;25.40;64.20;;;;;;6299302;28;20049;-76
2021/06/17 04:01:45;;;;;;;12.73;7.53;;;25.50;64.00;;;;;;6280157;28;20155;-75
2021/06/17 04:04:49;;;;;;;13.20;7.82;;;25.50;64.00;;;;;;6274116;28;20032;-76
2021/06/17 04:07:57;;;;;;;11.35;7.00;;;25.50;64.00;;;;;;6256344;28;20033;-75
2021/06/17 04:11:01;;;;;;;13.63;7.88;;;25.50;64.10;;;;;;6256029;28;20446;-75
2021/06/17 04:14:03;;;;;;;19.30;7.63;;;25.50;63.80;;;;;;6275505;28;20111;-76
2021/06/17 04:17:06;;;;;;;18.35;9.20;;;25.60;64.00;;;;;;6281035;28;20063;-76
2021/06/17 04:20:11;;;;;;;13.68;8.25;;;25.60;64.10;;;;;;6280914;28;20044;-76
2021/06/17 04:23:16;;;;;;;15.73;7.78;;;25.60;64.20;;;;;;6280410;28;20124;-76
2021/06/17 04:26:20;;;;;;;15.40;7.43;;;25.60;64.00;;;;;;6280700;28;20417;-76
2021/06/17 04:29:22;;;;;;;10.02;7.50;;;25.60;63.90;;;;;;6270386;28;20096;-75
2021/06/17 04:32:24;;;;;;;16.58;8.07;;;25.60;64.00;;;;;;6274410;28;20128;-74
2021/06/17 04:35:29;;;;;;;12.43;7.82;;;25.50;63.70;;;;;;6274555;28;20029;-74
2021/06/17 04:38:31;;;;;;;11.07;7.25;;;25.50;63.80;;;;;;6261098;28;20040;-75
2021/06/17 04:41:32;;;;;;;12.27;7.20;;;25.50;63.80;;;;;;6277240;28;20021;-76
2021/06/17 04:44:44;;;;;;;12.75;7.53;;;25.50;63.70;;;;;;6278200;28;20033;-76
2021/06/17 04:47:49;;;;;;;12.95;8.13;;;25.60;63.70;;;;;;6277561;28;20033;-76
2021/06/17 04:50:50;;;;;;;15.90;7.43;;;25.50;63.50;;;;;;6277992;28;20025;-76
2021/06/17 04:53:53;;;;;;;14.68;9.02;;;25.50;63.50;;;;;;6261963;28;20032;-76
2021/06/17 04:56:55;;;;;;;20.30;7.95;;;25.50;63.50;;;;;;6280103;28;20033;-76
2021/06/17 04:59:56;;;;;;;12.15;8.00;;;25.50;63.50;;;;;;6304919;28;20445;-76
2021/06/17 05:02:57;;;;;;;14.00;8.38;;;25.50;63.40;;;;;;6290911;28;20069;-75
2021/06/17 05:06:00;;;;;;;12.18;7.85;;;25.40;63.50;;;;;;6263210;28;20492;-76
2021/06/17 05:12:21;;;;;;;12.88;7.80;;;25.40;63.50;;;;;;6251923;28;20042;-75
2021/06/17 05:15:23;;;;;;;15.00;8.38;;;25.40;63.40;;;;;;6275500;28;20504;-75
2021/06/17 05:18:25;;;;;;;29.77;9.30;;;25.30;63.50;;;;;;6283878;28;20036;-75
2021/06/17 05:21:26;;;;;;;11.80;7.00;;;25.40;63.70;;;;;;6259814;28;20032;-75
2021/06/17 05:24:27;;;;;;;16.83;7.75;;;25.40;63.50;;;;;;6302193;28;20048;-76
2021/06/17 05:27:29;;;;;;;14.15;7.53;;;25.40;63.20;;;;;;6273212;28;20111;-76
2021/06/17 05:30:31;;;;;;;25.10;7.80;;;25.50;63.20;;;;;;6266778;28;20033;-76
2021/06/17 05:33:32;;;;;;;13.73;7.60;;;25.60;63.10;;;;;;6249576;28;20029;-76
2021/06/17 05:36:33;;;;;;;17.98;7.88;;;25.60;63.00;;;;;;6234342;28;20087;-76
2021/06/17 05:39:34;;;;;;;39.30;9.00;;;25.70;62.90;;;;;;6252689;28;20039;-75
2021/06/17 05:42:35;;;;;;;15.80;7.00;;;25.90;62.70;;;;;;6238867;28;20437;-76
2021/06/17 05:45:39;;;;;;;15.45;7.43;;;26.00;62.50;;;;;;6275897;28;20043;-76
2021/06/17 05:48:42;;;;;;;14.30;8.07;;;26.10;62.20;;;;;;6259130;28;20381;-76
2021/06/17 05:51:43;;;;;;;14.90;8.25;;;26.20;61.90;;;;;;6276716;28;20040;-76
2021/06/17 05:54:43;;;;;;;14.57;7.68;;;26.20;61.60;;;;;;6258867;28;20033;-76
2021/06/17 05:57:45;;;;;;;12.65;7.45;;;26.30;60.90;;;;;;6274751;28;20025;-77
2021/06/17 06:00:46;;;;;;;9.07;6.80;;;26.30;60.20;;;;;;6258919;28;20021;-76
2021/06/17 06:03:48;;;;;;;12.55;6.97;;;26.30;60.00;;;;;;6240049;28;20457;-76
2021/06/17 06:06:49;;;;;;;11.15;7.00;;;26.40;59.80;;;;;;6250518;28;20104;-76
2021/06/17 06:09:50;;;;;;;18.58;7.88;;;26.50;59.70;;;;;;6251591;28;20038;-76
2021/06/17 06:12:51;;;;;;;16.40;7.40;;;26.60;59.60;;;;;;6253656;28;20051;-77
2021/06/17 06:15:52;;;;;;;12.05;7.18;;;26.80;59.40;;;;;;6276036;28;20029;-78
2021/06/17 06:18:55;;;;;;;12.38;7.93;;;27.00;59.10;;;;;;6258495;28;20033;-76
2021/06/17 06:21:56;;;;;;;13.10;7.32;;;27.10;58.90;;;;;;6275913;28;24606;-76
2021/06/17 06:24:57;;;;;;;43.92;11.95;;;27.30;58.60;;;;;;6257956;28;20048;-77
2021/06/17 06:27:58;;;;;;;23.48;8.85;;;27.50;58.50;;;;;;6258428;28;20045;-77
2021/06/17 06:30:59;;;;;;;11.50;7.38;;;27.70;58.00;;;;;;6275421;28;20033;-76
2021/06/17 06:34:00;;;;;;;10.30;7.13;;;27.80;57.70;;;;;;6237482;28;20029;-77
2021/06/17 06:37:03;;;;;;;12.75;7.22;;;28.00;57.20;;;;;;6250546;28;20041;-76
2021/06/17 06:40:05;;;;;;;16.33;7.20;;;28.10;56.40;;;;;;6251377;28;20063;-77
2021/06/17 06:43:09;;;;;;;12.52;6.82;;;28.10;56.20;;;;;;6241714;28;20049;-75
2021/06/17 06:46:10;;;;;;;12.90;6.93;;;28.20;55.50;;;;;;6257714;28;20342;-76
2021/06/17 06:49:11;;;;;;;10.32;6.88;;;28.20;55.40;;;;;;6256745;28;20029;-76
2021/06/17 06:52:12;;;;;;;15.63;6.40;;;28.30;55.40;;;;;;6257731;28;20029;-76
2021/06/17 06:55:14;;;;;;;12.73;7.47;;;28.30;55.40;;;;;;6256607;28;20092;-77
2021/06/17 06:58:15;;;;;;;15.68;7.22;;;28.30;55.40;;;;;;6245602;28;20095;-76
2021/06/17 07:01:16;;;;;;;10.15;6.75;;;28.40;55.70;;;;;;6257389;28;20021;-77
2021/06/17 07:04:17;;;;;;;9.35;6.13;;;28.40;55.50;;;;;;6251559;28;20026;-76
2021/06/17 07:07:18;;;;;;;17.80;6.90;;;28.50;55.20;;;;;;6232694;28;20365;-76
2021/06/17 07:10:19;;;;;;;11.90;7.03;;;28.30;55.40;;;;;;6250026;28;20108;-76
2021/06/17 07:13:22;;;;;;;11.48;6.70;;;28.30;55.50;;;;;;6270549;28;20028;-77
2021/06/17 07:16:25;;;;;;;13.20;7.18;;;28.10;55.50;;;;;;6248434;28;20025;-76
2021/06/17 07:19:26;;;;;;;14.68;6.65;;;28.00;55.40;;;;;;6249090;28;20025;-75
2021/06/17 07:22:27;;;;;;;12.15;7.13;;;27.90;55.70;;;;;;6249212;28;20040;-76
2021/06/17 07:25:29;;;;;;;17.17;7.28;;;27.90;55.80;;;;;;6249815;28;20026;-75
2021/06/17 07:28:31;;;;;;;10.80;7.25;;;27.90;55.70;;;;;;6270875;28;20060;-76
2021/06/17 07:31:33;;;;;;;14.88;8.02;;;27.90;55.80;;;;;;6255483;28;20144;-77
2021/06/17 07:34:36;;;;;;;11.95;6.53;;;28.00;55.60;;;;;;6223053;28;20315;-76
2021/06/17 07:37:37;;;;;;;15.93;7.07;;;28.10;55.50;;;;;;6231465;28;20022;-77
2021/06/17 07:40:41;;;;;;;11.88;7.20;;;28.20;55.60;;;;;;6222378;28;20071;-76
2021/06/17 07:43:42;;;;;;;8.60;6.68;;;28.30;55.50;;;;;;6238384;28;20044;-77
2021/06/17 07:46:44;;;;;;;9.68;6.70;;;28.40;55.30;;;;;;6257093;28;20022;-77
2021/06/17 07:49:46;;;;;;;10.00;6.70;;;28.50;54.90;;;;;;6238413;28;20033;-75
2021/06/17 07:52:50;;;;;;;16.48;7.13;;;28.50;54.60;;;;;;6240037;28;20041;-76
2021/06/17 07:55:51;;;;;;;11.80;6.47;;;28.50;54.30;;;;;;6263138;28;20025;-76
2021/06/17 07:58:52;;;;;;;19.52;6.82;;;28.60;54.20;;;;;;6263812;28;20033;-76
2021/06/17 08:01:53;;;;;;;11.20;6.45;;;28.70;54.10;;;;;;6243530;28;20480;-77
2021/06/17 08:04:55;;;;;;;21.35;7.03;;;28.90;53.70;;;;;;6223445;28;20084;-76
2021/06/17 08:07:55;;;;;;;17.25;8.45;;;29.00;53.40;;;;;;6223357;28;20030;-76
2021/06/17 08:10:57;;;;;;;12.85;6.78;;;29.20;53.40;;;;;;6224209;28;20029;-76
2021/06/17 08:13:58;;;;;;;9.25;6.45;;;29.30;53.20;;;;;;6246894;28;20029;-76
2021/06/17 08:16:59;;;;;;;12.35;6.03;;;29.40;53.10;;;;;;6231138;28;20037;-76
2021/06/17 08:20:05;;;;;;;7.47;6.30;;;29.50;53.00;;;;;;6231231;28;20048;-76
2021/06/17 08:23:07;;;;;;;9.75;6.60;;;29.70;52.70;;;;;;6248696;28;20037;-76
2021/06/17 08:26:08;;;;;;;18.70;6.65;;;29.70;52.00;;;;;;6231315;28;20099;-76
2021/06/17 08:29:09;;;;;;;12.20;6.72;;;29.80;52.10;;;;;;6232674;28;20086;-76
2021/06/17 08:32:10;;;;;;;10.05;6.57;;;29.80;52.00;;;;;;6272361;28;20128;-76
2021/06/17 08:35:13;;;;;;;13.50;6.22;;;29.80;51.80;;;;;;6245526;28;20104;-76
2021/06/17 08:38:14;;;;;;;11.63;6.22;;;29.80;51.80;;;;;;6254933;28;20094;-76
2021/06/17 08:41:16;;;;;;;43.15;7.45;;;29.80;51.80;;;;;;6273542;28;20104;-76
2021/06/17 08:44:17;;;;;;;18.40;6.88;;;29.80;51.90;;;;;;6255107;28;20032;-76
2021/06/17 08:47:18;;;;;;;19.13;6.57;;;29.90;52.10;;;;;;6254952;28;20036;-76
2021/06/17 08:50:19;;;;;;;10.25;6.78;;;30.10;51.90;;;;;;6272374;28;20106;-75
2021/06/17 08:53:21;;;;;;;12.02;6.63;;;30.20;51.80;;;;;;6254549;28;20021;-76
2021/06/17 08:56:22;;;;;;;12.50;6.57;;;30.30;51.60;;;;;;6254696;28;20453;-76
2021/06/17 08:59:44;;;;;;;8.90;6.40;;;30.40;51.30;;;;;;6270275;28;20028;-78
2021/06/17 09:02:53;;;;;;;10.80;6.40;;;30.40;51.50;;;;;;6267879;28;20083;-77
2021/06/17 09:05:56;;;;;;;14.48;7.03;;;30.50;51.00;;;;;;6269678;28;20036;-76
2021/06/17 09:08:59;;;;;;;12.48;7.80;;;30.60;50.90;;;;;;6265871;28;20043;-76
2021/06/17 09:12:01;;;;;;;12.77;7.47;;;30.70;51.00;;;;;;6270104;28;20123;-77
2021/06/17 09:15:03;;;;;;;16.17;9.52;;;30.80;50.90;;;;;;6275994;28;20493;-77
2021/06/17 09:18:26;;;;;;;10.23;7.60;;;31.00;50.90;;;;;;6278261;28;20402;-76
2021/06/17 09:21:28;;;;;;;10.85;7.03;;;31.20;50.50;;;;;;6296533;28;20039;-76
2021/06/17 09:24:36;;;;;;;14.88;7.57;;;31.40;50.30;;;;;;6282668;28;20111;-76
2021/06/17 09:27:43;;;;;;;13.88;8.75;;;31.50;50.00;;;;;;6282524;28;20032;-76
2021/06/17 09:30:44;;;;;;;11.63;6.47;;;31.60;49.90;;;;;;6258047;28;20029;-76
2021/06/17 09:33:47;;;;;;;10.90;7.05;;;31.80;49.60;;;;;;6197838;28;20026;-76
2021/06/17 09:36:48;;;;;;;9.90;6.70;;;31.90;49.20;;;;;;6233021;28;20025;-77
2021/06/17 09:39:49;;;;;;;11.75;6.57;;;32.00;48.70;;;;;;6233322;28;20026;-76
2021/06/17 09:42:51;;;;;;;9.98;6.93;;;32.00;48.30;;;;;;6232579;28;20415;-77
2021/06/17 09:46:00;;;;;;;10.23;6.45;;;32.00;48.50;;;;;;6245189;28;20053;-76
2021/06/17 09:49:09;;;;;;;15.43;6.68;;;32.00;48.40;;;;;;6274009;28;20041;-76
2021/06/17 09:52:11;;;;;;;21.05;7.35;;;32.20;48.20;;;;;;6258765;28;20029;-76
2021/06/17 09:55:12;;;;;;;11.50;6.18;;;32.40;48.00;;;;;;6258175;28;20115;-76
2021/06/17 09:58:41;;;;;;;11.13;6.10;;;32.60;47.70;;;;;;6258748;28;20025;-76
2021/06/17 10:01:44;;;;;;;9.68;6.55;;;32.70;47.10;;;;;;6257491;28;20032;-76
2021/06/17 10:04:45;;;;;;;9.10;5.53;;;32.90;46.80;;;;;;6217360;28;20036;-76
2021/06/17 10:07:50;;;;;;;13.77;5.72;;;33.00;46.10;;;;;;6233505;28;20069;-76
2021/06/17 10:10:53;;;;;;;8.70;6.03;;;33.00;45.50;;;;;;6233345;28;20457;-76
2021/06/17 10:13:54;;;;;;;9.32;6.55;;;33.00;45.10;;;;;;6249494;28;20035;-76
2021/06/17 10:16:56;;;;;;;16.38;5.45;;;33.00;44.90;;;;;;6225430;28;20108;-75
2021/06/17 10:19:58;;;;;;;13.65;6.07;;;33.10;44.80;;;;;;6233079;28;20338;-77
2021/06/17 10:23:00;;;;;;;7.53;6.13;;;33.30;44.70;;;;;;6234135;28;20035;-77
2021/06/17 10:26:05;;;;;;;11.77;6.07;;;33.40;44.40;;;;;;6251322;28;20031;-76
2021/06/17 10:29:06;;;;;;;12.43;5.63;;;33.50;44.30;;;;;;6278658;28;20064;-76
2021/06/17 10:32:10;;;;;;;11.85;5.63;;;33.50;44.20;;;;;;6291983;28;20060;-77
2021/06/17 10:35:25;;;;;;;10.70;5.63;;;33.50;44.00;;;;;;6265878;28;20382;-76
2021/06/17 10:38:26;;;;;;;14.05;5.32;;;33.60;44.10;;;;;;6271957;28;20028;-76
2021/06/17 10:41:51;;;;;;;9.50;6.30;;;33.70;43.90;;;;;;6281079;28;20332;-76
2021/06/17 10:44:59;;;;;;;30.20;7.13;;;33.70;43.60;;;;;;6260299;28;20029;-76
2021/06/17 10:48:14;;;;;;;30.55;6.90;;;33.80;43.80;;;;;;6260098;28;20040;-76
2021/06/17 10:51:18;;;;;;;7.45;5.55;;;33.80;43.60;;;;;;6277995;28;20055;-75
2021/06/17 10:54:46;;;;;;;12.18;6.65;;;34.00;43.70;;;;;;6278332;28;20444;-75
2021/06/17 10:57:51;;;;;;;10.70;5.67;;;34.00;43.10;;;;;;6294770;28;20123;-76
2021/06/17 11:00:52;;;;;;;8.93;5.75;;;34.20;43.00;;;;;;6278589;28;20255;-77
2021/06/17 11:04:07;;;;;;;7.85;5.63;;;34.30;42.70;;;;;;6277011;28;20022;-75
2021/06/17 11:07:10;;;;;;;24.98;5.65;;;34.40;42.20;;;;;;6278572;28;20031;-75
2021/06/17 11:10:11;;;;;;;9.80;5.53;;;34.50;41.90;;;;;;6270154;28;20109;-76
2021/06/17 11:13:28;;;;;;;11.80;5.22;;;34.50;41.60;;;;;;6287388;28;20116;-76
2021/06/17 11:16:33;;;;;;;20.85;5.68;;;34.40;41.40;;;;;;6244761;28;20057;-76
2021/06/17 11:20:05;;;;;;;8.98;5.47;;;34.50;41.50;;;;;;6247235;28;20096;-76
2021/06/17 11:23:10;;;;;;;19.00;5.43;;;34.80;41.00;;;;;;6227085;28;20037;-77
2021/06/17 11:26:38;;;;;;;12.93;5.43;;;35.20;40.00;;;;;;6244156;28;20029;-76
2021/06/17 11:29:39;;;;;;;11.48;5.32;;;35.60;39.10;;;;;;6227027;28;20037;-76
2021/06/17 11:32:40;;;;;;;11.15;5.60;;;36.00;38.50;;;;;;6227860;28;20448;-76
2021/06/17 11:36:02;;;;;;;15.00;5.20;;;36.40;37.50;;;;;;6211081;28;20029;-76
2021/06/17 11:39:03;;;;;;;10.82;5.03;;;36.60;37.10;;;;;;6244353;28;20041;-76
2021/06/17 11:42:06;;;;;;;12.77;5.85;;;36.60;36.80;;;;;;6220299;28;20037;-76
2021/06/17 11:45:12;;;;;;;16.77;6.05;;;36.70;36.50;;;;;;6260366;28;20464;-76
2021/06/17 11:48:15;;;;;;;6.70;4.38;;;37.10;35.90;;;;;;6234554;28;20361;-75
2021/06/17 11:51:17;;;;;;;7.65;4.93;;;37.90;35.00;;;;;;6253063;28;20127;-76
2021/06/17 11:54:21;;;;;;;14.25;4.28;;;38.30;34.20;;;;;;6243088;28;20075;-76
2021/06/17 11:57:26;;;;;;;6.80;4.53;;;38.50;33.60;;;;;;6243617;28;20059;-76
2021/06/17 12:00:32;;;;;;;15.48;5.13;;;38.30;33.40;;;;;;6254289;28;20045;-76
2021/06/17 12:03:33;;;;;;;6.68;4.18;;;38.10;33.70;;;;;;6220044;28;20086;-76
2021/06/17 12:06:34;;;;;;;6.95;4.50;;;37.90;34.00;;;;;;6246707;28;20033;-76
2021/06/17 12:09:35;;;;;;;6.55;4.68;;;38.30;33.40;;;;;;6260093;28;20391;-75
2021/06/17 12:12:44;;;;;;;11.52;4.82;;;39.00;32.60;;;;;;6271511;28;20041;-76
2021/06/17 12:15:46;;;;;;;86.68;7.72;;;39.70;31.70;;;;;;6262944;28;20035;-77
2021/06/17 12:18:47;;;;;;;8.68;4.28;;;40.30;31.20;;;;;;6306850;28;20321;-75
2021/06/17 12:21:48;;;;;;;16.27;4.32;;;41.00;30.30;;;;;;6289766;28;20036;-76
2021/06/17 12:24:50;;;;;;;14.68;4.65;;;41.20;30.00;;;;;;6283790;28;20032;-76
2021/06/17 12:27:55;;;;;;;24.35;6.78;;;40.70;30.00;;;;;;6279735;28;20033;-76
2021/06/17 12:30:59;;;;;;;6.78;3.95;;;40.20;30.70;;;;;;6279490;28;20350;-76
2021/06/17 12:34:13;;;;;;;7.72;4.65;;;40.20;30.50;;;;;;6259426;28;20033;-76
2021/06/17 12:37:14;;;;;;;9.82;4.10;;;40.00;30.30;;;;;;6255428;28;20029;-76
2021/06/17 12:40:37;;;;;;;5.80;4.10;;;39.60;30.50;;;;;;6254847;28;20029;-76
2021/06/17 12:43:49;;;;;;;19.33;4.50;;;39.20;31.10;;;;;;6271582;28;20036;-76
2021/06/17 12:46:56;;;;;;;7.72;4.30;;;39.30;31.20;;;;;;6262900;28;20083;-76
2021/06/17 12:53:13;;;;;;;7.88;4.30;;;40.20;30.10;;;;;;6248590;28;20048;-76
2021/06/17 12:56:15;;;;;;;6.97;4.20;;;40.50;29.70;;;;;;6249317;28;20438;-76
2021/06/17 12:59:16;;;;;;;6.25;4.22;;;40.60;29.40;;;;;;6250427;28;20029;-76
2021/06/17 13:02:23;;;;;;;8.23;4.88;;;40.70;29.50;;;;;;6251963;28;20036;-77
2021/06/17 13:05:25;;;;;;;5.35;4.10;;;40.90;29.10;;;;;;6264498;28;20099;-76
2021/06/17 13:08:46;;;;;;;6.25;4.18;;;41.50;28.60;;;;;;6258027;28;20108;-76
2021/06/17 13:12:06;;;;;;;7.85;4.22;;;42.40;28.10;;;;;;6250940;28;20032;-77
2021/06/17 13:15:08;;;;;;;8.93;4.53;;;43.00;27.10;;;;;;6269514;28;20453;-77
2021/06/17 13:18:12;;;;;;;4.05;3.65;;;42.90;26.80;;;;;;6283012;28;20438;-75
2021/06/17 13:21:13;;;;;;;11.98;4.10;;;43.40;26.60;;;;;;6283410;28;20337;-76
2021/06/17 13:24:18;;;;;;;6.38;4.30;;;44.30;25.70;;;;;;6283024;28;20028;-76
2021/06/17 13:27:21;;;;;;;5.15;4.25;;;45.10;25.10;;;;;;6301285;28;20120;-76
2021/06/17 13:30:27;;;;;;;13.05;4.43;;;45.70;24.50;;;;;;6284325;28;20024;-76
2021/06/17 13:33:28;;;;;;;11.17;4.27;;;45.60;24.20;;;;;;6267950;28;20024;-76
2021/06/17 13:36:30;;;;;;;13.60;3.85;;;45.00;24.40;;;;;;6274682;28;20099;-77
2021/06/17 13:39:31;;;;;;;7.45;4.25;;;44.70;24.70;;;;;;6257911;28;20025;-76
2021/06/17 13:42:32;;;;;;;6.85;4.03;;;44.20;24.90;;;;;;6275360;28;20040;-76
2021/06/17 13:45:33;;;;;;;4.97;3.72;;;43.60;25.30;;;;;;6257965;28;20021;-76
2021/06/17 13:48:35;;;;;;;5.05;3.90;;;43.10;25.50;;;;;;6248307;28;20120;-76
2021/06/17 13:51:36;;;;;;;5.15;4.18;;;42.60;26.00;;;;;;6257305;28;20029;-77
2021/06/17 13:54:38;;;;;;;5.40;3.85;;;42.40;25.90;;;;;;6256914;28;20025;-75
2021/06/17 13:57:39;;;;;;;5.50;4.07;;;41.80;26.30;;;;;;6248298;28;20053;-76
2021/06/17 14:00:42;;;;;;;7.88;3.75;;;41.00;26.70;;;;;;6258696;28;20032;-75
2021/06/17 14:03:43;;;;;;;8.25;3.78;;;40.30;27.00;;;;;;6256946;28;20044;-75
2021/06/17 14:06:48;;;;;;;7.20;3.20;;;39.80;27.20;;;;;;6257528;28;20029;-75
2021/06/17 14:09:49;;;;;;;8.48;3.17;;;39.60;27.30;;;;;;6256906;28;20327;-75
2021/06/17 14:12:50;;;;;;;5.78;3.40;;;39.70;26.90;;;;;;6257398;28;20057;-76
2021/06/17 14:15:51;;;;;;;10.30;3.60;;;39.90;26.50;;;;;;6257444;28;20029;-76
2021/06/17 14:18:53;;;;;;;3.70;3.30;;;40.40;26.10;;;;;;6256632;28;20062;-76
2021/06/17 14:21:54;;;;;;;7.65;3.83;;;40.80;25.90;;;;;;6257234;28;20040;-76
2021/06/17 14:24:56;;;;;;;8.43;4.47;;;40.60;26.30;;;;;;6247261;28;20450;-76
2021/06/17 14:27:57;;;;;;;6.32;3.80;;;39.90;27.10;;;;;;6256876;28;20032;-76
2021/06/17 14:30:58;;;;;;;5.22;3.70;;;39.40;28.00;;;;;;6240341;28;20044;-77
2021/06/17 14:33:59;;;;;;;6.88;3.28;;;39.00;28.70;;;;;;6256558;28;20454;-76
2021/06/17 14:37:01;;;;;;;9.48;3.70;;;38.60;29.20;;;;;;6276699;28;20029;-75
2021/06/17 14:40:05;;;;;;;7.22;4.03;;;38.20;29.70;;;;;;6274044;28;20029;-76
2021/06/17 14:43:07;;;;;;;14.68;4.28;;;37.90;30.40;;;;;;6256191;28;20120;-75
2021/06/17 14:46:10;;;;;;;5.88;4.00;;;37.70;31.00;;;;;;6256826;28;20033;-76
2021/06/17 14:49:11;;;;;;;9.65;3.67;;;37.70;31.20;;;;;;6258888;28;20179;-78
2021/06/17 14:52:13;;;;;;;6.07;4.05;;;37.70;31.10;;;;;;6275393;28;20044;-77
2021/06/17 14:55:14;;;;;;;7.15;4.25;;;37.50;31.40;;;;;;6241914;28;20321;-76
2021/06/17 14:58:15;;;;;;;11.13;4.53;;;37.20;31.90;;;;;;6259029;28;20033;-76
2021/06/17 15:01:19;;;;;;;6.22;3.97;;;36.90;32.60;;;;;;6262295;28;20044;-76
2021/06/17 15:04:20;;;;;;;6.63;4.18;;;36.60;33.00;;;;;;6242157;28;20033;-75
2021/06/17 15:07:24;;;;;;;9.00;3.85;;;36.40;33.60;;;;;;6257975;28;20037;-76
2021/06/17 15:10:25;;;;;;;4.80;3.75;;;36.30;33.80;;;;;;6255673;28;20464;-76
2021/06/17 15:13:30;;;;;;;7.38;4.38;;;36.10;34.10;;;;;;6274794;28;20422;-76
2021/06/17 15:16:32;;;;;;;5.60;3.80;;;36.00;34.50;;;;;;6278346;28;20035;-75
2021/06/17 15:19:34;;;;;;;6.32;4.35;;;36.10;34.40;;;;;;6279660;28;20035;-75
2021/06/17 15:22:34;;;;;;;11.25;4.30;;;36.40;33.80;;;;;;6279899;28;20035;-75
2021/06/17 15:25:37;;;;;;;7.70;3.60;;;36.50;33.50;;;;;;6279793;28;20021;-76
2021/06/17 15:28:38;;;;;;;8.45;4.38;;;36.50;33.40;;;;;;6280507;28;20046;-76
2021/06/17 15:31:40;;;;;;;8.82;3.83;;;36.40;33.40;;;;;;6280328;28;20352;-75
2021/06/17 15:34:41;;;;;;;5.80;4.13;;;36.10;33.60;;;;;;6255579;28;20033;-75
2021/06/17 15:37:42;;;;;;;8.10;4.85;;;36.00;33.80;;;;;;6273007;28;20179;-77
2021/06/17 15:40:43;;;;;;;5.82;4.03;;;36.10;33.70;;;;;;6273976;28;20422;-77
2021/06/17 15:43:45;;;;;;;8.15;4.10;;;36.20;33.50;;;;;;6272421;28;20028;-77
2021/06/17 15:46:46;;;;;;;5.25;4.20;;;36.60;33.00;;;;;;6253507;28;20032;-77
2021/06/17 15:49:47;;;;;;;5.43;3.90;;;36.90;32.70;;;;;;6254871;28;20040;-78
2021/06/17 15:52:48;;;;;;;13.02;4.57;;;37.20;32.10;;;;;;6255219;28;20361;-77
2021/06/17 15:55:49;;;;;;;5.13;4.20;;;37.20;31.90;;;;;;6254792;28;20465;-78